Gaerwen, United Kingdom
Current Conditions -  °F | °C
As of 11:50 PM on Friday 19 Dec 2014 (Local Time) from EGOV Reporting Station
Broken Clouds Broken Clouds  
Wind Chill: 40°   Ceiling: 3400
Heat Index: 48°   Visibility: 6mi
Dew Point: 36°   Wind: 25mph
Humidity: 62%   Direction: 250°WSW
Pressure: 30.15"   Gusts: NA
Location:  53.23°N, 4.28°W
Report Text: EGOV 192350Z AUTO 25022KT 9999 FEW030/// BKN034/// BKN050/// 09/02 Q1021 RERA
Loading
Personal Weather Stations






























Interactive Weather Map New forecast layout! Learn more

10-Day Weather Forecast

Advertisements
Track Severe Weather on mobile